Time;durP1;ratioP1;P1;durP2;ratioP2;P2;SDS_P1;SDS_P2;PMS_P1;PMS_P2;Temp;Humidity;BMP_temperature;BMP_pressure;BME280_temperature;BME280_humidity;BME280_pressure;Samples;Min_cycle;Max_cycle;Signal;HPM_P1;HPM_P2
2022/07/03 10:38:04;;;;;;;9.98;2.20;;;23.70;99.90;;;;;;5043478;27;20442;-60
2022/07/03 10:44:51;;;;;;;5.30;1.80;;;24.00;99.90;;;;;;5147804;27;20065;-72
2022/07/03 10:47:35;;;;;;;5.50;2.47;;;24.00;99.90;;;;;;5163018;27;20085;-75
2022/07/03 10:50:03;;;;;;;5.13;2.10;;;24.00;99.50;;;;;;5163794;27;20042;-75
2022/07/03 10:52:29;;;;;;;3.58;1.35;;;24.00;97.70;;;;;;5161208;27;20030;-72
2022/07/03 10:54:56;;;;;;;5.68;1.90;;;24.00;98.80;;;;;;5160882;27;20057;-74
2022/07/03 10:57:22;;;;;;;5.28;1.70;;;24.10;98.90;;;;;;5144408;27;20842;-74
2022/07/03 10:59:56;;;;;;;4.88;1.30;;;24.10;98.00;;;;;;5141022;27;20098;-73
2022/07/03 11:02:22;;;;;;;5.47;1.60;;;24.10;96.60;;;;;;5155309;27;20042;-75
2022/07/03 11:04:57;;;;;;;6.50;1.30;;;24.10;95.50;;;;;;5140230;27;20102;-74
2022/07/03 11:07:23;;;;;;;4.13;0.93;;;24.10;97.40;;;;;;5159800;27;20047;-75
2022/07/03 11:10:14;;;;;;;2.85;1.13;;;24.10;95.80;;;;;;5115908;27;20524;-75
2022/07/03 11:13:00;;;;;;;4.65;1.23;;;24.30;93.80;;;;;;5141470;27;20101;-73
2022/07/03 11:15:29;;;;;;;;;;;24.40;90.10;;;;;;5098209;27;20398;-75
2022/07/03 11:18:15;;;;;;;5.35;1.10;;;24.40;91.10;;;;;;5141669;27;19927;-75
2022/07/03 11:20:43;;;;;;;3.33;1.30;;;24.60;91.70;;;;;;5130200;27;20042;-71
2022/07/03 11:23:27;;;;;;;2.90;0.98;;;24.70;91.50;;;;;;5159808;27;20512;-73
2022/07/03 11:25:55;;;;;;;3.10;1.20;;;24.90;93.10;;;;;;5162023;27;20042;-75
2022/07/03 11:28:33;;;;;;;6.07;1.20;;;25.00;88.30;;;;;;5145280;27;20150;-76
2022/07/03 11:31:16;;;;;;;4.55;1.30;;;25.00;88.10;;;;;;5147990;27;20050;-75
2022/07/03 11:33:56;;;;;;;2.95;1.00;;;25.10;88.60;;;;;;5148741;27;20034;-76
2022/07/03 11:36:22;;;;;;;2.70;1.10;;;25.20;87.80;;;;;;5156898;27;20041;-77
2022/07/03 11:39:04;;;;;;;3.25;1.05;;;25.30;85.40;;;;;;5141576;27;20038;-76
2022/07/03 11:41:42;;;;;;;4.32;1.10;;;25.20;77.70;;;;;;5145176;27;20112;-88
2022/07/03 11:44:09;;;;;;;3.72;1.10;;;25.00;85.10;;;;;;5153244;27;20035;-90
2022/07/03 11:46:37;;;;;;;3.28;0.90;;;25.00;83.80;;;;;;5101843;27;20052;-83
2022/07/03 11:49:14;;;;;;;2.15;0.90;;;25.10;84.00;;;;;;5084336;28;20123;-82
2022/07/03 11:51:41;;;;;;;;;;;25.20;78.10;;;;;;5086292;28;20047;-81
2022/07/03 11:54:07;;;;;;;2.67;0.90;;;25.10;74.20;;;;;;5075563;28;19958;-77
2022/07/03 11:56:35;;;;;;;3.00;0.98;;;25.00;76.90;;;;;;5062987;28;20059;-79
2022/07/03 11:59:03;;;;;;;2.47;0.90;;;25.10;75.30;;;;;;5055428;28;20083;-77
2022/07/03 12:01:36;;;;;;;4.05;0.95;;;25.20;81.70;;;;;;5052611;28;20040;-83
2022/07/03 12:04:05;;;;;;;1.55;1.00;;;25.30;78.20;;;;;;5076661;28;20037;-71
2022/07/03 12:06:41;;;;;;;3.55;1.25;;;25.30;74.40;;;;;;5081794;28;20118;-72
2022/07/03 12:09:16;;;;;;;1.40;0.80;;;25.20;72.00;;;;;;5070161;28;20075;-73
2022/07/03 12:11:51;;;;;;;1.85;1.10;;;25.20;76.10;;;;;;5080226;28;20036;-73
2022/07/03 12:14:16;;;;;;;1.77;1.10;;;25.10;76.60;;;;;;5069779;28;20048;-73
2022/07/03 12:16:42;;;;;;;1.80;1.10;;;25.10;77.20;;;;;;5070813;28;20047;-72
2022/07/03 12:19:08;;;;;;;2.22;1.20;;;25.00;82.20;;;;;;5053412;28;20076;-73
2022/07/03 12:21:39;;;;;;;2.97;1.30;;;25.20;81.40;;;;;;5070590;28;20086;-73
2022/07/03 12:24:11;;;;;;;1.35;0.93;;;25.20;75.60;;;;;;5070943;28;20105;-73
2022/07/03 12:26:37;;;;;;;2.92;1.00;;;25.20;78.50;;;;;;5070046;28;20391;-73
2022/07/03 12:29:07;;;;;;;2.67;1.00;;;25.10;79.20;;;;;;5088863;28;20044;-73
2022/07/03 12:31:33;;;;;;;2.33;1.00;;;25.20;80.70;;;;;;5067170;28;20110;-73
2022/07/03 12:34:00;;;;;;;2.88;1.15;;;25.20;82.40;;;;;;5052289;28;20040;-73
2022/07/03 12:36:26;;;;;;;3.35;1.00;;;25.40;80.60;;;;;;5052606;28;20056;-70
2022/07/03 12:38:53;;;;;;;6.43;1.23;;;25.50;91.60;;;;;;5091451;28;20040;-70
2022/07/03 12:41:20;;;;;;;2.60;1.10;;;25.50;81.00;;;;;;5067674;28;20399;-70
2022/07/03 12:43:47;;;;;;;;;;;25.40;79.20;;;;;;5067670;28;20048;-70
2022/07/03 12:46:42;;;;;;;1.23;1.00;;;25.30;88.40;;;;;;5072812;28;20019;-70
2022/07/03 12:49:12;;;;;;;2.90;1.08;;;25.50;91.90;;;;;;5049071;28;20048;-70
2022/07/03 12:51:53;;;;;;;2.50;1.00;;;25.60;88.30;;;;;;5079248;28;20514;-70
2022/07/03 12:54:21;;;;;;;2.47;1.10;;;25.60;82.50;;;;;;5090593;28;20052;-70
2022/07/03 12:59:16;;;;;;;2.00;1.10;;;25.50;82.40;;;;;;5088734;28;20052;-70
2022/07/03 13:00:08;;;;;;;2.88;1.10;;;25.50;83.70;;;;;;5073728;28;20055;-70
2022/07/03 13:02:35;;;;;;;1.75;0.93;;;25.50;88.00;;;;;;5051284;28;20390;-70
2022/07/03 13:05:13;;;;;;;3.10;1.20;;;25.50;87.00;;;;;;5068692;28;20081;-70
2022/07/03 13:07:43;;;;;;;1.92;1.20;;;25.50;84.90;;;;;;5067127;28;20102;-72
2022/07/03 13:10:09;;;;;;;4.25;1.15;;;25.40;83.30;;;;;;5054503;28;20047;-74
2022/07/03 13:12:44;;;;;;;2.65;1.02;;;25.50;88.30;;;;;;5053277;28;20341;-74
2022/07/03 13:15:10;;;;;;;3.72;1.10;;;25.60;86.40;;;;;;5072861;28;20114;-74
2022/07/03 13:17:54;;;;;;;3.20;1.20;;;25.80;86.40;;;;;;5073356;28;20143;-74
2022/07/03 13:20:27;;;;;;;3.75;1.60;;;26.00;81.80;;;;;;5080798;28;20055;-74
2022/07/03 13:22:56;;;;;;;2.75;1.00;;;26.20;75.50;;;;;;5061114;28;20078;-74
2022/07/03 13:25:22;;;;;;;3.22;1.23;;;26.30;75.80;;;;;;5069764;28;20055;-74
2022/07/03 13:27:47;;;;;;;2.67;1.05;;;26.50;71.10;;;;;;5059220;28;20040;-74
2022/07/03 13:30:17;;;;;;;2.23;1.10;;;26.60;68.90;;;;;;5054305;28;20047;-74
2022/07/03 13:32:44;;;;;;;2.38;1.27;;;26.70;70.00;;;;;;5084202;28;20398;-74
2022/07/03 13:35:11;;;;;;;1.77;1.00;;;26.80;66.60;;;;;;5055182;28;20052;-73
2022/07/03 13:37:38;;;;;;;1.85;0.75;;;26.80;66.80;;;;;;5065030;28;20153;-79
2022/07/03 13:40:05;;;;;;;2.53;0.90;;;26.90;64.00;;;;;;5059368;28;20044;-78
2022/07/03 13:42:30;;;;;;;;;;;26.90;62.80;;;;;;5063635;28;20124;-76
2022/07/03 13:44:56;;;;;;;1.63;1.00;;;26.90;64.70;;;;;;5066619;28;20065;-75
2022/07/03 13:47:22;;;;;;;5.03;1.10;;;27.00;66.40;;;;;;5082769;28;20043;-75
2022/07/03 13:49:48;;;;;;;4.10;1.13;;;27.10;66.50;;;;;;5056866;28;20044;-72
2022/07/03 13:52:14;;;;;;;3.55;0.85;;;27.10;66.20;;;;;;5085791;28;20480;-73
2022/07/03 13:54:40;;;;;;;3.10;1.10;;;27.10;65.70;;;;;;5077400;28;20174;-74
2022/07/03 13:57:06;;;;;;;3.60;1.17;;;27.00;64.10;;;;;;5057516;28;20055;-74
2022/07/03 13:59:31;;;;;;;3.03;0.93;;;26.80;65.40;;;;;;5072967;28;20684;-74
2022/07/03 14:01:58;;;;;;;3.03;0.80;;;26.40;63.70;;;;;;5056979;28;20052;-74
2022/07/03 14:04:23;;;;;;;5.43;0.88;;;25.60;74.30;;;;;;5080281;28;20044;-78
2022/07/03 14:06:49;;;;;;;3.80;0.70;;;24.80;85.60;;;;;;5070307;28;20051;-77
2022/07/03 14:09:15;;;;;;;2.92;0.70;;;23.90;94.80;;;;;;5062879;28;20142;-77
2022/07/03 14:11:41;;;;;;;3.63;0.90;;;23.30;98.80;;;;;;5087604;28;20145;-74
2022/07/03 14:14:07;;;;;;;2.60;1.00;;;22.70;99.90;;;;;;5055464;28;20122;-73
2022/07/03 14:16:32;;;;;;;2.15;1.00;;;22.30;99.90;;;;;;5071461;28;20521;-74
2022/07/03 14:18:58;;;;;;;3.00;1.00;;;22.00;99.90;;;;;;5075879;28;20058;-75
2022/07/03 14:21:24;;;;;;;2.17;0.90;;;21.80;99.90;;;;;;5064462;28;20043;-74
2022/07/03 14:23:49;;;;;;;4.53;1.13;;;21.70;99.90;;;;;;5086168;28;20115;-75
2022/07/03 14:26:15;;;;;;;2.00;1.08;;;21.80;99.90;;;;;;5072156;28;20090;-75
2022/07/03 14:34:29;;;;;;;3.65;1.58;;;22.20;99.90;;;;;;5082279;28;20048;-76
2022/07/03 14:36:55;;;;;;;2.83;1.70;;;22.30;99.90;;;;;;5054384;28;20071;-79
2022/07/03 14:39:21;;;;;;;2.08;1.40;;;22.40;99.90;;;;;;5061273;28;20108;-76
2022/07/03 14:41:48;;;;;;;2.25;1.48;;;22.50;99.90;;;;;;5083501;28;20074;-77
2022/07/03 14:44:14;;;;;;;3.38;1.42;;;22.60;99.90;;;;;;5080796;28;20052;-77
2022/07/03 14:46:40;;;;;;;2.47;1.40;;;22.60;99.90;;;;;;5079585;28;20047;-73
2022/07/03 14:49:06;;;;;;;4.80;1.30;;;22.70;99.90;;;;;;5069293;28;20092;-76
2022/07/03 14:51:32;;;;;;;3.42;1.50;;;22.70;99.90;;;;;;5053375;28;20127;-73
2022/07/03 14:53:58;;;;;;;3.50;1.42;;;22.90;99.90;;;;;;5063906;28;20036;-74
2022/07/03 14:56:24;;;;;;;3.03;1.20;;;23.10;99.90;;;;;;5062332;28;20521;-73
2022/07/03 14:58:50;;;;;;;2.40;1.20;;;23.20;99.90;;;;;;5084939;28;20040;-74
2022/07/03 15:01:20;;;;;;;3.17;1.10;;;23.40;99.90;;;;;;5060587;28;20063;-77
2022/07/03 15:04:09;;;;;;;1.90;1.25;;;23.50;99.90;;;;;;5088580;28;20109;-76
2022/07/03 15:06:35;;;;;;;2.50;1.10;;;23.60;99.90;;;;;;5086539;28;20048;-76
2022/07/03 15:09:02;;;;;;;2.00;0.98;;;23.70;99.90;;;;;;5084221;28;20044;-76
2022/07/03 15:14:31;;;;;;;2.45;1.17;;;23.70;99.90;;;;;;5060366;28;20417;-78
2022/07/03 15:16:59;;;;;;;1.23;0.80;;;23.80;99.90;;;;;;5082964;28;20048;-75
2022/07/03 15:19:26;;;;;;;1.70;1.15;;;23.80;99.90;;;;;;5085960;28;20071;-80
2022/07/03 15:21:53;;;;;;;2.47;1.00;;;24.00;99.90;;;;;;5072242;28;20118;-79
2022/07/03 15:24:25;;;;;;;2.05;1.05;;;24.00;99.90;;;;;;5060823;28;20044;-80
2022/07/03 15:26:52;;;;;;;1.40;1.00;;;24.00;99.70;;;;;;5060677;28;20291;-77
2022/07/03 15:29:19;;;;;;;1.75;1.20;;;23.90;99.40;;;;;;5081587;28;20040;-75
2022/07/03 15:31:46;;;;;;;4.25;1.40;;;23.80;98.60;;;;;;5063429;28;20536;-75
2022/07/03 15:34:12;;;;;;;2.40;1.33;;;23.60;99.00;;;;;;5091790;28;20403;-79
2022/07/03 15:36:50;;;;;;;4.35;1.58;;;23.50;99.60;;;;;;5088768;28;20040;-83
2022/07/03 15:39:30;;;;;;;4.43;1.80;;;23.50;99.90;;;;;;5063518;28;20384;-82
2022/07/03 15:42:13;;;;;;;2.45;1.85;;;23.50;99.90;;;;;;5080652;28;20546;-80
2022/07/03 15:44:49;;;;;;;3.95;1.98;;;23.40;99.90;;;;;;5061036;28;20155;-76
2022/07/03 15:48:00;;;;;;;3.72;1.70;;;23.40;99.90;;;;;;5067223;28;20048;-80
2022/07/03 15:50:50;;;;;;;2.78;1.70;;;23.30;99.90;;;;;;5040556;28;20490;-80
2022/07/03 15:53:19;;;;;;;5.45;1.48;;;23.30;99.90;;;;;;5076901;28;20043;-75
2022/07/03 15:55:47;;;;;;;3.08;1.30;;;23.30;99.90;;;;;;5060777;28;20483;-76
2022/07/03 15:58:14;;;;;;;3.45;1.42;;;23.40;99.90;;;;;;5077248;28;20041;-76
2022/07/03 16:00:41;;;;;;;2.10;1.63;;;23.50;99.90;;;;;;5073072;28;20036;-76
2022/07/03 16:03:14;;;;;;;;;;;23.60;99.90;;;;;;5084575;28;20471;-77
2022/07/03 16:05:42;;;;;;;2.78;1.55;;;23.60;99.90;;;;;;5061190;28;20673;-75
2022/07/03 16:08:11;;;;;;;2.95;1.60;;;23.60;99.90;;;;;;5089779;28;20533;-76
2022/07/03 16:10:38;;;;;;;2.92;1.65;;;23.60;99.90;;;;;;5077136;28;20036;-75
2022/07/03 16:13:10;;;;;;;1.65;1.50;;;23.70;99.90;;;;;;5058703;28;20377;-84
2022/07/03 16:15:43;;;;;;;4.38;1.70;;;23.70;99.90;;;;;;5090011;28;20045;-84
2022/07/03 16:18:09;;;;;;;4.15;1.88;;;23.60;99.90;;;;;;5080503;28;20044;-82
2022/07/03 16:20:36;;;;;;;5.10;2.25;;;23.50;99.90;;;;;;5088253;28;20043;-78
2022/07/03 16:23:04;;;;;;;4.85;2.03;;;23.30;99.90;;;;;;5066901;28;20052;-80
2022/07/03 16:25:32;;;;;;;2.90;1.60;;;23.00;99.90;;;;;;5086725;28;20033;-72
2022/07/03 16:28:01;;;;;;;3.28;1.67;;;22.80;99.90;;;;;;5083769;28;20055;-72
2022/07/03 16:30:27;;;;;;;2.58;1.30;;;22.60;99.90;;;;;;5079038;28;20403;-73
2022/07/03 16:32:52;;;;;;;4.95;1.40;;;22.40;99.90;;;;;;5077054;28;20035;-73
2022/07/03 16:35:27;;;;;;;1.83;1.42;;;22.20;99.90;;;;;;5053861;28;20695;-73
2022/07/03 16:38:04;;;;;;;3.53;1.50;;;22.10;99.90;;;;;;5057225;28;20062;-73
2022/07/03 16:40:32;;;;;;;2.63;1.30;;;22.10;99.90;;;;;;5064878;28;20551;-73
2022/07/03 16:43:01;;;;;;;2.78;1.50;;;22.00;99.90;;;;;;5077127;28;20131;-73
2022/07/03 16:45:30;;;;;;;4.20;1.30;;;21.90;99.90;;;;;;5052088;28;20048;-73
2022/07/03 16:48:07;;;;;;;2.97;1.42;;;21.90;99.90;;;;;;5079550;28;20047;-73
2022/07/03 16:50:33;;;;;;;3.25;1.40;;;21.90;99.90;;;;;;5082020;28;20039;-73
2022/07/03 16:52:59;;;;;;;2.28;1.25;;;21.80;99.90;;;;;;5077943;28;20032;-74
2022/07/03 16:55:24;;;;;;;3.22;1.65;;;21.80;99.90;;;;;;5071728;28;20595;-74
2022/07/03 16:57:53;;;;;;;1.90;1.20;;;21.70;99.90;;;;;;5071762;28;20384;-74
2022/07/03 17:00:28;;;;;;;1.50;1.30;;;21.70;99.90;;;;;;5068749;28;20051;-73
2022/07/03 17:02:55;;;;;;;2.50;1.25;;;21.70;99.90;;;;;;5061044;28;20053;-73
2022/07/03 17:05:24;;;;;;;3.28;1.30;;;21.70;99.90;;;;;;5070254;28;20045;-73
2022/07/03 17:07:52;;;;;;;3.80;1.05;;;21.80;99.90;;;;;;5069154;28;20047;-73
2022/07/03 17:10:21;;;;;;;3.25;1.30;;;21.90;99.90;;;;;;5067913;28;20043;-73
2022/07/03 17:12:49;;;;;;;2.13;1.20;;;22.00;99.90;;;;;;5069281;28;20079;-73
2022/07/03 17:15:17;;;;;;;1.92;1.05;;;22.00;99.90;;;;;;5053689;28;20036;-72
2022/07/03 17:17:50;;;;;;;2.17;1.00;;;21.90;99.90;;;;;;5055942;28;20379;-72
2022/07/03 17:20:20;;;;;;;1.55;1.02;;;21.90;99.90;;;;;;5063312;28;20554;-72
2022/07/03 17:22:48;;;;;;;2.42;1.30;;;21.90;99.90;;;;;;5077714;28;20040;-72
2022/07/03 17:25:21;;;;;;;;;;;21.90;99.90;;;;;;5082434;28;20032;-72
2022/07/03 17:27:48;;;;;;;2.15;1.00;;;21.90;99.90;;;;;;5072410;28;20008;-73
2022/07/03 17:30:15;;;;;;;1.77;1.05;;;21.90;99.90;;;;;;5054417;28;20049;-72
2022/07/03 17:32:43;;;;;;;2.95;0.93;;;22.00;99.90;;;;;;5060822;28;20052;-71
2022/07/03 17:35:39;;;;;;;2.45;0.90;;;21.90;99.90;;;;;;5088720;28;20048;-72
2022/07/03 17:38:16;;;;;;;1.58;0.90;;;21.90;99.90;;;;;;5062914;28;20102;-72
2022/07/03 17:40:44;;;;;;;2.38;1.10;;;21.90;99.90;;;;;;5089856;28;20048;-72
2022/07/03 17:43:11;;;;;;;2.25;0.93;;;21.80;99.90;;;;;;5082910;28;20040;-73
2022/07/03 17:45:40;;;;;;;1.30;1.10;;;21.90;99.90;;;;;;5083275;28;20044;-72
2022/07/03 17:48:06;;;;;;;3.00;1.10;;;21.80;99.90;;;;;;5080517;28;20048;-72
2022/07/03 17:50:33;;;;;;;1.58;1.20;;;21.80;99.90;;;;;;5078452;28;20498;-72
2022/07/03 17:52:59;;;;;;;2.10;1.10;;;21.90;99.90;;;;;;5072537;28;20036;-72
2022/07/03 17:55:27;;;;;;;2.00;1.10;;;21.90;99.90;;;;;;5073113;28;20495;-72
2022/07/03 17:57:53;;;;;;;2.05;1.20;;;21.80;99.90;;;;;;5081612;28;20306;-72
2022/07/03 18:00:22;;;;;;;4.05;1.23;;;21.80;99.90;;;;;;5081611;28;20076;-73
2022/07/03 18:02:51;;;;;;;3.75;1.50;;;21.80;99.90;;;;;;5067050;28;20395;-72
2022/07/03 18:05:17;;;;;;;2.70;1.20;;;21.70;99.90;;;;;;5058752;28;20048;-72
2022/07/03 18:07:59;;;;;;;2.25;1.13;;;21.60;99.90;;;;;;5068546;28;20119;-73
2022/07/03 18:10:46;;;;;;;3.22;1.23;;;21.60;99.90;;;;;;5061845;28;20127;-72
2022/07/03 18:13:39;;;;;;;1.52;1.10;;;21.50;99.90;;;;;;5067721;28;20059;-72
2022/07/03 18:16:13;;;;;;;1.88;0.98;;;21.60;99.90;;;;;;5076399;28;20162;-73
2022/07/03 18:18:42;;;;;;;2.00;0.98;;;21.50;99.90;;;;;;5080682;28;20032;-73
2022/07/03 18:21:10;;;;;;;2.15;1.10;;;21.40;99.90;;;;;;5077576;28;20044;-73
2022/07/03 18:23:49;;;;;;;2.08;1.00;;;21.40;99.90;;;;;;5070754;28;20052;-73
2022/07/03 18:26:24;;;;;;;2.95;1.13;;;21.40;99.90;;;;;;5068438;28;20116;-73
2022/07/03 18:28:51;;;;;;;3.38;1.40;;;21.40;99.90;;;;;;5083257;28;20049;-72
2022/07/03 18:31:18;;;;;;;1.58;1.38;;;21.30;99.90;;;;;;5079303;28;20078;-72
2022/07/03 18:33:46;;;;;;;2.33;1.40;;;21.30;99.90;;;;;;5077482;28;20039;-72
2022/07/03 18:36:17;;;;;;;3.85;1.25;;;21.30;99.90;;;;;;5062154;28;20040;-72
2022/07/03 18:38:43;;;;;;;4.63;1.27;;;21.20;99.90;;;;;;5072910;28;20503;-72
2022/07/03 18:41:09;;;;;;;1.92;1.20;;;21.20;99.90;;;;;;5072254;28;20136;-72
2022/07/03 18:43:35;;;;;;;2.75;1.52;;;21.10;99.90;;;;;;5084867;28;20043;-73
2022/07/03 18:46:01;;;;;;;2.50;1.33;;;21.10;99.90;;;;;;5080828;28;20391;-72
2022/07/03 18:48:28;;;;;;;2.63;1.10;;;21.00;99.90;;;;;;5073139;28;20468;-72
2022/07/03 18:51:13;;;;;;;2.03;1.50;;;21.00;99.90;;;;;;5066639;28;20490;-72
2022/07/03 18:53:46;;;;;;;3.57;1.47;;;20.90;99.90;;;;;;5068772;28;20044;-72
2022/07/03 18:56:24;;;;;;;2.92;1.50;;;20.80;99.90;;;;;;5084183;28;20119;-72
2022/07/03 18:58:56;;;;;;;2.33;1.52;;;20.80;99.90;;;;;;5056464;28;20044;-72
2022/07/03 19:01:25;;;;;;;3.42;1.60;;;20.80;99.90;;;;;;5067049;28;20071;-73
2022/07/03 19:04:31;;;;;;;3.88;1.50;;;20.80;99.90;;;;;;5079718;28;20041;-72
2022/07/03 19:07:00;;;;;;;2.30;1.60;;;20.80;99.90;;;;;;5071826;28;20040;-72
2022/07/03 19:09:35;;;;;;;3.63;1.63;;;20.80;99.90;;;;;;5085996;28;20306;-72
2022/07/03 19:12:06;;;;;;;3.65;1.70;;;20.80;99.90;;;;;;5066211;28;20166;-72
2022/07/03 19:14:34;;;;;;;3.08;1.30;;;20.70;99.90;;;;;;5080674;28;20040;-72
2022/07/03 19:17:11;;;;;;;4.63;1.70;;;20.70;99.90;;;;;;5073910;28;20040;-72
2022/07/03 19:19:37;;;;;;;3.10;1.60;;;20.70;99.90;;;;;;5072468;28;20037;-71
2022/07/03 19:22:05;;;;;;;3.28;1.73;;;20.60;99.90;;;;;;5084388;28;20067;-72
2022/07/03 19:24:31;;;;;;;3.95;1.90;;;20.50;99.90;;;;;;5057082;28;20368;-72
2022/07/03 19:26:57;;;;;;;4.45;1.70;;;20.50;99.90;;;;;;5083032;28;20095;-72
2022/07/03 19:29:23;;;;;;;1.83;1.50;;;20.40;99.90;;;;;;5062130;28;20076;-72
2022/07/03 19:31:49;;;;;;;4.05;1.60;;;20.40;99.90;;;;;;5086134;28;20036;-72
2022/07/03 19:34:15;;;;;;;4.25;1.77;;;20.30;99.90;;;;;;5066265;28;20048;-72
2022/07/03 19:36:41;;;;;;;3.80;1.63;;;20.30;99.90;;;;;;5077656;28;20517;-72
2022/07/03 19:39:07;;;;;;;4.32;1.75;;;20.20;99.90;;;;;;5057614;28;20040;-72
2022/07/03 19:41:33;;;;;;;4.13;1.77;;;20.20;99.90;;;;;;5074444;28;20052;-73
2022/07/03 19:44:01;;;;;;;6.47;2.00;;;20.10;99.90;;;;;;5073254;28;20047;-72
2022/07/03 19:46:27;;;;;;;4.10;1.70;;;20.10;99.90;;;;;;5067528;28;20074;-72
2022/07/03 19:48:53;;;;;;;4.53;2.00;;;20.00;99.90;;;;;;5059528;28;20118;-72
2022/07/03 19:51:19;;;;;;;3.70;1.95;;;19.90;99.90;;;;;;5069157;28;20428;-73
2022/07/03 19:53:47;;;;;;;4.43;2.10;;;19.90;99.90;;;;;;5063845;28;20040;-72
2022/07/03 19:56:14;;;;;;;3.70;1.80;;;19.80;99.90;;;;;;5066234;28;20041;-72
2022/07/03 19:58:40;;;;;;;2.65;1.63;;;19.80;99.90;;;;;;5062215;28;20395;-72
2022/07/03 20:01:06;;;;;;;5.35;2.03;;;19.70;99.90;;;;;;5081391;28;20048;-72
2022/07/03 20:03:32;;;;;;;4.07;1.98;;;19.70;99.90;;;;;;5066585;28;20048;-72
2022/07/03 20:05:59;;;;;;;3.00;1.70;;;19.70;99.90;;;;;;5063483;28;20048;-72
2022/07/03 20:08:25;;;;;;;5.70;2.15;;;19.70;99.90;;;;;;5086360;28;20032;-72
2022/07/03 20:10:50;;;;;;;4.72;2.40;;;19.60;99.90;;;;;;5079251;28;20503;-72
2022/07/03 20:13:16;;;;;;;4.32;1.95;;;19.60;99.90;;;;;;5061768;28;20380;-72
2022/07/03 20:15:42;;;;;;;3.10;2.05;;;19.60;99.90;;;;;;5075083;28;20050;-73
2022/07/03 20:18:08;;;;;;;3.13;1.98;;;19.50;99.90;;;;;;5079202;28;20032;-72
2022/07/03 20:20:34;;;;;;;4.03;2.00;;;19.50;99.90;;;;;;5079917;28;20633;-72
2022/07/03 20:23:01;;;;;;;5.57;2.42;;;19.50;99.90;;;;;;5069672;28;20052;-72
2022/07/03 20:25:31;;;;;;;3.05;2.30;;;19.40;99.90;;;;;;5063274;28;20469;-72
2022/07/03 20:27:58;;;;;;;3.63;1.95;;;19.40;99.90;;;;;;5081101;28;20127;-72
2022/07/03 20:30:24;;;;;;;5.20;2.28;;;19.40;99.90;;;;;;5066779;28;21159;-72
2022/07/03 20:32:51;;;;;;;2.95;2.10;;;19.40;99.90;;;;;;5081675;28;20039;-72
2022/07/03 20:35:16;;;;;;;4.35;2.45;;;19.40;99.90;;;;;;5059447;28;20052;-72
2022/07/03 20:37:42;;;;;;;5.88;2.60;;;19.30;99.90;;;;;;5072126;28;20036;-72
2022/07/03 20:40:08;;;;;;;5.22;2.30;;;19.30;99.90;;;;;;5057663;28;20128;-72
2022/07/03 20:42:34;;;;;;;4.13;2.67;;;19.20;99.90;;;;;;5052960;28;20048;-72
2022/07/03 20:44:59;;;;;;;5.68;2.55;;;19.20;99.90;;;;;;5070340;28;20048;-72
2022/07/03 20:47:25;;;;;;;4.32;2.60;;;19.10;99.90;;;;;;5063023;28;20040;-72
2022/07/03 20:49:51;;;;;;;5.93;3.00;;;19.00;99.90;;;;;;5079443;28;20073;-72
2022/07/03 20:52:16;;;;;;;6.10;2.92;;;19.00;99.90;;;;;;5087536;28;20482;-72
2022/07/03 20:54:42;;;;;;;7.65;3.28;;;19.00;99.90;;;;;;5062118;28;20058;-72
2022/07/03 20:57:08;;;;;;;5.90;3.20;;;19.00;99.90;;;;;;5082059;28;20043;-69
2022/07/03 20:59:34;;;;;;;6.28;3.00;;;18.90;99.90;;;;;;5066414;28;20488;-72
2022/07/03 21:01:59;;;;;;;4.80;3.10;;;18.90;99.90;;;;;;5078513;28;20394;-72
2022/07/03 21:04:25;;;;;;;7.03;3.08;;;18.90;99.90;;;;;;5059167;28;20686;-72
2022/07/03 21:06:51;;;;;;;6.97;2.83;;;18.80;99.90;;;;;;5064958;28;20043;-72
2022/07/03 21:09:17;;;;;;;5.72;3.10;;;18.70;99.90;;;;;;5075932;28;20146;-72
2022/07/03 21:11:43;;;;;;;5.85;3.10;;;18.80;99.90;;;;;;5081988;28;20081;-72
2022/07/03 21:14:10;;;;;;;5.18;3.10;;;18.70;99.90;;;;;;5061598;28;20055;-72
2022/07/03 21:16:37;;;;;;;4.72;2.95;;;18.70;99.90;;;;;;5060200;28;20514;-72
2022/07/03 21:19:05;;;;;;;5.75;3.10;;;18.60;99.90;;;;;;5077827;28;20071;-72
2022/07/03 21:21:32;;;;;;;5.05;3.10;;;18.60;99.90;;;;;;5052103;28;20055;-72
2022/07/03 21:23:58;;;;;;;6.03;3.20;;;18.60;99.90;;;;;;5061343;28;20123;-72
2022/07/03 21:26:24;;;;;;;6.72;3.20;;;18.50;99.90;;;;;;5066613;28;20059;-72
2022/07/03 21:28:50;;;;;;;4.85;2.88;;;18.60;99.90;;;;;;5062340;28;20032;-72
2022/07/03 21:31:16;;;;;;;3.90;2.80;;;18.50;99.90;;;;;;5056226;28;20052;-72
2022/07/03 21:33:43;;;;;;;5.10;2.85;;;18.40;99.90;;;;;;5078823;28;20032;-72
2022/07/03 21:36:09;;;;;;;5.28;3.25;;;18.40;99.90;;;;;;5078495;28;20096;-71
2022/07/03 21:38:34;;;;;;;6.97;3.40;;;18.30;99.90;;;;;;5066662;28;20131;-72
2022/07/03 21:41:00;;;;;;;8.50;3.67;;;18.30;99.90;;;;;;5054010;28;20053;-71
2022/07/03 21:43:26;;;;;;;5.40;3.78;;;18.30;99.90;;;;;;5077835;28;20479;-72
2022/07/03 21:45:52;;;;;;;5.82;4.13;;;18.20;99.90;;;;;;5055892;28;20491;-72
2022/07/03 21:48:18;;;;;;;8.63;4.32;;;18.20;99.90;;;;;;5080011;28;20036;-72
2022/07/03 21:50:43;;;;;;;7.53;4.07;;;18.20;99.90;;;;;;5070431;28;20510;-72
2022/07/03 21:53:09;;;;;;;7.28;4.15;;;18.10;99.90;;;;;;5078662;28;20089;-72
2022/07/03 21:55:37;;;;;;;6.78;3.60;;;18.10;99.90;;;;;;5079512;28;20475;-72
2022/07/03 21:58:04;;;;;;;7.60;3.83;;;18.00;99.90;;;;;;5076884;28;20055;-72
2022/07/03 22:00:30;;;;;;;5.85;3.88;;;18.00;99.90;;;;;;5065404;28;20052;-72
2022/07/03 22:02:56;;;;;;;7.55;4.10;;;17.90;99.90;;;;;;5059797;28;20556;-73
2022/07/03 22:05:22;;;;;;;7.05;4.07;;;17.90;99.90;;;;;;5073217;28;20028;-72
2022/07/03 22:07:47;;;;;;;6.20;3.60;;;17.90;99.90;;;;;;5073975;28;20052;-71
2022/07/03 22:10:13;;;;;;;4.30;3.50;;;17.80;99.90;;;;;;5067937;28;20036;-71
2022/07/03 22:12:43;;;;;;;5.32;3.30;;;17.80;99.90;;;;;;5052277;28;20039;-72
2022/07/03 22:15:11;;;;;;;6.00;4.05;;;17.80;99.90;;;;;;5048754;28;20385;-72
2022/07/03 22:17:39;;;;;;;5.22;4.00;;;17.70;99.90;;;;;;5072561;28;20852;-71
2022/07/03 22:20:06;;;;;;;7.70;3.92;;;17.70;99.90;;;;;;5068308;28;20045;-72
2022/07/03 22:22:32;;;;;;;6.25;3.65;;;17.70;99.90;;;;;;5067811;28;20435;-71
2022/07/03 22:24:58;;;;;;;7.55;3.60;;;17.60;99.90;;;;;;5076157;28;20043;-72
2022/07/03 22:27:24;;;;;;;7.63;4.18;;;17.60;99.90;;;;;;5068964;28;20062;-72
2022/07/03 22:29:50;;;;;;;5.28;3.70;;;17.50;99.90;;;;;;5068826;28;20032;-71
2022/07/03 22:32:16;;;;;;;5.90;3.58;;;17.50;99.90;;;;;;5074198;28;20048;-72
2022/07/03 22:34:42;;;;;;;6.35;3.75;;;17.50;99.90;;;;;;5070535;28;20395;-72
2022/07/03 22:37:08;;;;;;;7.07;3.93;;;17.40;99.90;;;;;;5066298;28;20047;-72
2022/07/03 22:39:34;;;;;;;5.60;3.70;;;17.40;99.90;;;;;;5073638;28;20266;-72
2022/07/03 22:42:01;;;;;;;5.38;3.80;;;17.40;99.90;;;;;;5063692;28;20098;-72
2022/07/03 22:44:27;;;;;;;4.93;3.85;;;17.40;99.90;;;;;;5055970;28;20040;-72
2022/07/03 22:46:52;;;;;;;5.18;4.28;;;17.40;99.90;;;;;;5046285;28;20044;-71
2022/07/03 22:49:18;;;;;;;6.95;4.50;;;17.30;99.90;;;;;;5063930;28;20064;-72
2022/07/03 22:51:44;;;;;;;5.32;4.30;;;17.30;99.90;;;;;;5051444;28;20071;-72
2022/07/03 22:54:11;;;;;;;6.30;4.53;;;17.30;99.90;;;;;;5049607;28;20040;-72
2022/07/03 22:56:37;;;;;;;11.55;4.88;;;17.30;99.90;;;;;;5052293;28;20053;-72
2022/07/03 22:59:03;;;;;;;6.80;4.60;;;17.30;99.90;;;;;;5050458;28;20503;-71
2022/07/03 23:01:30;;;;;;;6.33;4.20;;;17.20;99.90;;;;;;5052568;28;20119;-72
2022/07/03 23:03:56;;;;;;;4.85;4.10;;;17.20;99.90;;;;;;5049833;28;20582;-72
2022/07/03 23:06:21;;;;;;;8.40;4.40;;;17.20;99.90;;;;;;5049712;28;20127;-72
2022/07/03 23:08:48;;;;;;;6.28;4.50;;;17.20;99.90;;;;;;5055115;28;20033;-71
2022/07/03 23:11:14;;;;;;;6.00;4.50;;;17.10;99.90;;;;;;5059895;28;20472;-72
2022/07/03 23:13:40;;;;;;;6.38;4.43;;;17.10;99.90;;;;;;5050542;28;20037;-72
2022/07/03 23:16:05;;;;;;;7.10;4.60;;;17.10;99.90;;;;;;5056114;28;20055;-72
2022/07/03 23:18:31;;;;;;;10.15;4.40;;;17.00;99.90;;;;;;5056671;28;20037;-71
2022/07/03 23:20:57;;;;;;;7.30;4.28;;;16.90;99.90;;;;;;5047820;28;20051;-72
2022/07/03 23:23:23;;;;;;;6.78;4.90;;;16.90;99.90;;;;;;5052981;28;20124;-72
2022/07/03 23:25:49;;;;;;;6.78;5.10;;;16.90;99.90;;;;;;5054391;28;20050;-72
2022/07/03 23:28:14;;;;;;;6.38;5.13;;;16.80;99.90;;;;;;5049240;28;20508;-71
2022/07/03 23:30:40;;;;;;;7.38;4.95;;;16.80;99.90;;;;;;5051729;28;20445;-72
2022/07/03 23:33:05;;;;;;;6.20;4.65;;;16.80;99.90;;;;;;5058680;28;20737;-72
2022/07/03 23:35:32;;;;;;;6.28;4.93;;;16.70;99.90;;;;;;5048800;28;20457;-72
2022/07/03 23:37:57;;;;;;;7.28;4.47;;;16.70;99.90;;;;;;5065255;28;20136;-72
2022/07/03 23:40:23;;;;;;;5.55;4.68;;;16.70;99.90;;;;;;5066244;28;20129;-72
2022/07/03 23:42:48;;;;;;;8.57;5.25;;;16.60;99.90;;;;;;5066948;28;20033;-71
2022/07/03 23:45:14;;;;;;;6.03;4.85;;;16.60;99.90;;;;;;5078605;28;20048;-72
2022/07/03 23:47:40;;;;;;;6.63;5.35;;;16.50;99.90;;;;;;5061406;28;20051;-72